Raleigh Durham International Airport
KRDU : now visible

Airfield :











YOU CAN JOIN US ON...

 
LOGIN :

Register | Disclaimer

   EN    FR    IT 

 









Legend :    VFR   Marginal VFR   IFR   Intensive IFR   Very Intensive IFR
Visi :
Ceiling :
>= 8 km
>= 3000ft
5 to 8 km
1000 to 3000 ft
1500m to 5 km
500 to 1000 ft
800 to 1500m
200 to 500 ft
< 800m
< 200 ft
Symbols :   Thunderstorms  Fog  Heavy snow  Heavy precipitations  Wind > 20 kt






- Airport Elevation : 435 ft
- IATA code : RDU


KRDU - Raleigh Durham International

CURRENT METAR :
  • 142051Z 24010KT 10SM FEW018 SCT024 12/08 A2955 RMK AO2 SLP007 T01220078 53020

EXPIRED METARs :
  • 142041Z 24010KT 10SM SCT017 SCT024 12/08 A2955 RMK AO2 T01220083
  • 142002Z 23013KT 10SM SCT017 BKN022 12/09 A2952 RMK AO2 T01170089
  • 141951Z 24012KT 10SM BKN013 OVC020 12/09 A2953 RMK AO2 SLP998 T01170089
  • 141851Z 24011KT 10SM OVC013 12/09 A2951 RMK AO2 SLP991 T01170089

TAF KRDU
Valid from the 14 at 18:00 until the 15 at 18:00 UTC


141857Z 1418/1518 23009KT P6SM OVC015
TEMPO 1419/1422 25010G20KT BKN040
FM142200 27010G18KT P6SM SCT100
FM150300 24005KT P6SM SKC



MET'MAP, your aeronautical weather chart ! - Copyright ORBIFLY December 2007 - Disclaimer

ORBIFLY MET'MAP TEAM :

Programming & Development : Alexandra Zaïnal
Concept & original design : Baudouin d'Aumeries
Assistance for programming : Marc-Olivier Méhu
Technical & hardware support : Manuel Goepfert

Contact : metmap@orbifly.com




SOURCES & CREDITS :

   NOAA       Earth
Advisory